Time;durP1;ratioP1;P1;durP2;ratioP2;P2;SDS_P1;SDS_P2;PMS_P1;PMS_P2;Temp;Humidity;BMP_temperature;BMP_pressure;BME280_temperature;BME280_humidity;BME280_pressure;Samples;Min_cycle;Max_cycle;Signal;HPM_P1;HPM_P2
2020/12/06 00:01:53;;;;;;;3.13;2.47;;;16.80;44.50;;;;;;5057719;28;20175;-47
2020/12/06 00:04:21;;;;;;;3.08;2.58;;;16.80;44.40;;;;;;5057961;28;20503;-45
2020/12/06 00:06:48;;;;;;;2.85;2.58;;;16.80;44.40;;;;;;5057745;28;20432;-47
2020/12/06 00:09:15;;;;;;;3.60;2.70;;;16.80;44.40;;;;;;5057568;28;20028;-46
2020/12/06 00:11:40;;;;;;;3.83;2.78;;;16.80;44.40;;;;;;5057353;28;20351;-46
2020/12/06 00:14:06;;;;;;;3.33;2.50;;;16.80;44.40;;;;;;5057174;28;20029;-45
2020/12/06 00:16:31;;;;;;;2.83;2.35;;;16.80;44.40;;;;;;5057527;28;20083;-48
2020/12/06 00:18:57;;;;;;;3.05;2.40;;;16.80;44.40;;;;;;5057313;28;20017;-46
2020/12/06 00:21:23;;;;;;;3.30;2.47;;;16.70;44.40;;;;;;5057520;28;20435;-47
2020/12/06 00:23:49;;;;;;;4.00;2.42;;;16.70;44.40;;;;;;5057404;28;20040;-44
2020/12/06 00:26:20;;;;;;;4.53;2.70;;;16.70;44.40;;;;;;5056923;28;20146;-48
2020/12/06 00:28:46;;;;;;;3.53;2.60;;;16.70;44.40;;;;;;5057031;28;20029;-45
2020/12/06 00:31:11;;;;;;;4.22;2.90;;;16.70;44.40;;;;;;5056826;28;20428;-47
2020/12/06 00:33:37;;;;;;;3.25;2.35;;;16.70;44.40;;;;;;5056605;28;20029;-47
2020/12/06 00:36:03;;;;;;;2.72;2.20;;;16.60;44.30;;;;;;5056590;28;20036;-45
2020/12/06 00:38:28;;;;;;;3.63;2.67;;;16.70;44.40;;;;;;5057015;28;20035;-46
2020/12/06 00:40:54;;;;;;;3.30;2.65;;;16.70;44.40;;;;;;5057246;28;20053;-47
2020/12/06 00:43:19;;;;;;;2.95;2.55;;;16.70;44.40;;;;;;5056799;28;20055;-46
2020/12/06 00:45:45;;;;;;;3.63;2.75;;;16.70;44.40;;;;;;5056228;28;20108;-45
2020/12/06 00:48:10;;;;;;;3.33;2.67;;;16.60;44.30;;;;;;5056827;28;20024;-44
2020/12/06 00:50:35;;;;;;;2.80;2.25;;;16.60;44.30;;;;;;5056758;28;20056;-45
2020/12/06 00:53:01;;;;;;;2.53;2.22;;;16.60;44.30;;;;;;5056262;28;20135;-45
2020/12/06 00:55:27;;;;;;;3.13;2.55;;;16.60;44.30;;;;;;5056992;28;20061;-48
2020/12/06 00:57:52;;;;;;;3.03;2.22;;;16.60;44.30;;;;;;5056442;28;20029;-49
2020/12/06 01:00:18;;;;;;;2.88;2.05;;;16.60;44.30;;;;;;5056312;28;20116;-50
2020/12/06 01:02:44;;;;;;;4.18;2.53;;;16.60;44.30;;;;;;5056179;28;20470;-45
2020/12/06 01:05:09;;;;;;;4.05;2.75;;;16.60;44.30;;;;;;5056626;28;20440;-47
2020/12/06 01:07:39;;;;;;;3.35;2.85;;;16.60;44.30;;;;;;5056315;28;20029;-46
2020/12/06 01:10:06;;;;;;;2.28;2.08;;;16.60;44.30;;;;;;5056046;28;20017;-47
2020/12/06 01:12:32;;;;;;;4.43;2.75;;;16.60;44.30;;;;;;5056290;28;20029;-44
2020/12/06 01:14:58;;;;;;;4.05;2.70;;;16.60;44.30;;;;;;5056315;28;20116;-49
2020/12/06 01:17:23;;;;;;;2.28;2.08;;;16.60;44.30;;;;;;5056007;28;20448;-45
2020/12/06 01:19:49;;;;;;;2.50;2.30;;;16.60;44.30;;;;;;5056372;28;20032;-45
2020/12/06 01:22:14;;;;;;;2.95;2.30;;;16.60;44.30;;;;;;5056011;28;20052;-45
2020/12/06 01:24:40;;;;;;;2.85;2.40;;;16.50;44.20;;;;;;5056407;28;20482;-48
2020/12/06 01:27:05;;;;;;;2.97;2.28;;;16.50;44.20;;;;;;5056057;28;20099;-48
2020/12/06 01:29:31;;;;;;;3.05;2.13;;;16.50;44.20;;;;;;5055722;28;20033;-44
2020/12/06 01:31:56;;;;;;;2.65;2.28;;;16.50;44.20;;;;;;5055875;28;20353;-46
2020/12/06 01:34:22;;;;;;;2.97;2.22;;;16.50;44.20;;;;;;5055912;28;20021;-47
2020/12/06 01:36:51;;;;;;;3.13;2.38;;;16.50;44.20;;;;;;5055955;28;20100;-46
2020/12/06 01:39:18;;;;;;;2.67;2.20;;;16.50;44.20;;;;;;5055920;28;20024;-48
2020/12/06 01:41:43;;;;;;;2.20;2.00;;;16.50;44.20;;;;;;5055401;28;20440;-47
2020/12/06 01:44:09;;;;;;;2.30;2.10;;;16.50;44.20;;;;;;5055546;28;20025;-49
2020/12/06 01:46:37;;;;;;;3.45;2.10;;;16.50;44.30;;;;;;5055517;28;20028;-49
2020/12/06 01:49:03;;;;;;;2.20;2.00;;;16.50;45.00;;;;;;5055484;28;20031;-48
2020/12/06 01:51:29;;;;;;;2.72;2.25;;;16.50;44.20;;;;;;5056172;28;20370;-47
2020/12/06 01:53:54;;;;;;;2.90;2.42;;;16.50;44.20;;;;;;5055227;28;20032;-47
2020/12/06 01:56:20;;;;;;;2.42;2.22;;;16.50;44.20;;;;;;5055489;28;20025;-45
2020/12/06 01:58:46;;;;;;;3.97;2.20;;;16.50;44.20;;;;;;5055117;28;20025;-45
2020/12/06 02:01:11;;;;;;;3.28;2.17;;;16.50;44.20;;;;;;5055458;28;20444;-47
2020/12/06 02:03:37;;;;;;;2.55;2.28;;;16.40;44.80;;;;;;5055571;28;20416;-45
2020/12/06 02:06:04;;;;;;;2.85;2.38;;;16.40;44.20;;;;;;5055296;28;20422;-45
2020/12/06 02:08:30;;;;;;;2.88;2.28;;;16.40;44.20;;;;;;5055391;28;20096;-47
2020/12/06 02:10:55;;;;;;;2.90;2.30;;;16.40;44.20;;;;;;5055282;28;20072;-45
2020/12/06 02:13:21;;;;;;;2.28;1.95;;;16.40;44.20;;;;;;5055200;28;20428;-46
2020/12/06 02:15:47;;;;;;;2.40;2.20;;;16.40;44.20;;;;;;5055139;28;20025;-48
2020/12/06 02:18:14;;;;;;;2.47;2.00;;;16.40;44.20;;;;;;5055251;28;20359;-44
2020/12/06 02:20:39;;;;;;;2.35;2.10;;;16.40;44.20;;;;;;5055291;28;20021;-46
2020/12/06 02:23:05;;;;;;;3.40;2.22;;;16.40;44.20;;;;;;5054911;28;20036;-46
2020/12/06 02:25:38;;;;;;;2.25;2.05;;;16.40;44.20;;;;;;5054967;28;20025;-47
2020/12/06 02:28:04;;;;;;;2.77;2.20;;;16.40;44.20;;;;;;5054816;28;20029;-45
2020/12/06 02:30:31;;;;;;;3.35;2.20;;;16.40;44.20;;;;;;5055059;28;20455;-50
2020/12/06 02:32:57;;;;;;;2.50;1.90;;;16.40;44.20;;;;;;5054406;28;20036;-44
2020/12/06 02:35:22;;;;;;;2.85;1.90;;;16.40;44.80;;;;;;5055233;28;20068;-47
2020/12/06 02:37:49;;;;;;;2.38;2.17;;;16.40;44.20;;;;;;5055052;28;20108;-50
2020/12/06 02:40:15;;;;;;;3.38;2.20;;;16.30;44.10;;;;;;5054852;28;20206;-46
2020/12/06 02:42:40;;;;;;;2.65;2.08;;;16.40;44.20;;;;;;5054677;28;20052;-46
2020/12/06 02:45:06;;;;;;;2.58;2.38;;;16.30;44.10;;;;;;5055160;28;20440;-44
2020/12/06 02:47:31;;;;;;;2.28;2.08;;;16.40;44.90;;;;;;5055001;28;20029;-45
2020/12/06 02:49:57;;;;;;;3.03;1.77;;;16.40;44.20;;;;;;5054973;28;20060;-47
2020/12/06 02:52:23;;;;;;;2.40;2.20;;;16.30;44.20;;;;;;5054645;28;20064;-47
2020/12/06 02:54:48;;;;;;;2.42;2.22;;;16.30;44.10;;;;;;5054982;28;20440;-47
2020/12/06 02:57:14;;;;;;;2.08;1.88;;;16.30;44.10;;;;;;5054772;28;20032;-47
2020/12/06 02:59:39;;;;;;;2.35;1.95;;;16.30;44.20;;;;;;5057989;28;20025;-49
2020/12/06 03:02:05;;;;;;;2.30;2.05;;;16.30;44.20;;;;;;5059060;28;20044;-48
2020/12/06 03:04:30;;;;;;;2.17;1.98;;;16.30;44.20;;;;;;5058730;28;20036;-45
2020/12/06 03:06:56;;;;;;;2.10;1.90;;;16.30;44.10;;;;;;5058812;28;20436;-45
2020/12/06 03:09:21;;;;;;;2.00;1.80;;;16.30;44.20;;;;;;5059015;28;20025;-45
2020/12/06 03:11:47;;;;;;;2.42;1.95;;;16.30;44.20;;;;;;5058296;28;20391;-46
2020/12/06 03:14:13;;;;;;;3.05;2.15;;;16.30;44.20;;;;;;5058606;28;20021;-50
2020/12/06 03:16:39;;;;;;;2.03;1.83;;;16.30;44.20;;;;;;5058469;28;20025;-48
2020/12/06 03:19:04;;;;;;;1.70;1.60;;;16.30;44.20;;;;;;5058430;28;20454;-46
2020/12/06 03:21:30;;;;;;;2.08;1.80;;;16.30;44.20;;;;;;5058526;28;20333;-44
2020/12/06 03:23:55;;;;;;;3.38;1.83;;;16.30;44.20;;;;;;5058362;28;20116;-46
2020/12/06 03:26:21;;;;;;;2.10;1.98;;;16.30;44.20;;;;;;5058334;28;20037;-48
2020/12/06 03:28:46;;;;;;;2.10;1.90;;;16.30;44.20;;;;;;5058667;28;20067;-47
2020/12/06 03:31:12;;;;;;;4.28;2.10;;;16.20;44.20;;;;;;5058153;28;20053;-46
2020/12/06 03:33:37;;;;;;;2.10;1.90;;;16.20;44.10;;;;;;5057726;28;20116;-46
2020/12/06 03:36:03;;;;;;;4.35;2.25;;;16.20;44.10;;;;;;5058116;28;20025;-46
2020/12/06 03:38:28;;;;;;;2.13;1.80;;;16.20;44.10;;;;;;5058042;28;20025;-49
2020/12/06 03:40:54;;;;;;;2.25;1.90;;;16.20;44.20;;;;;;5057807;28;20340;-46
2020/12/06 03:43:19;;;;;;;1.95;1.75;;;16.20;44.20;;;;;;5057617;28;20104;-45
2020/12/06 03:45:45;;;;;;;2.42;2.22;;;16.20;44.10;;;;;;5058283;28;20367;-47
2020/12/06 03:48:10;;;;;;;2.20;2.00;;;16.20;44.10;;;;;;5057977;28;20029;-45
2020/12/06 03:50:36;;;;;;;1.92;1.77;;;16.20;44.10;;;;;;5058160;28;20040;-46
2020/12/06 03:53:03;;;;;;;2.10;1.85;;;16.20;44.20;;;;;;5057876;28;20029;-47
2020/12/06 03:55:28;;;;;;;2.10;1.75;;;16.20;44.20;;;;;;5057914;28;20163;-50
2020/12/06 03:57:54;;;;;;;2.42;2.05;;;16.20;44.10;;;;;;5057378;28;20103;-48
2020/12/06 04:00:21;;;;;;;2.20;1.85;;;16.20;44.10;;;;;;5058236;28;20061;-46
2020/12/06 04:02:49;;;;;;;1.88;1.75;;;16.20;44.10;;;;;;5057554;28;20454;-44
2020/12/06 04:05:19;;;;;;;1.75;1.65;;;16.30;44.20;;;;;;5057289;28;20028;-45
2020/12/06 04:07:45;;;;;;;2.50;1.75;;;16.30;44.20;;;;;;5057752;28;20025;-45
2020/12/06 04:10:10;;;;;;;1.70;1.60;;;16.30;44.20;;;;;;5056855;28;20029;-47
2020/12/06 04:12:35;;;;;;;2.15;1.63;;;16.30;44.20;;;;;;5057594;28;20363;-49
2020/12/06 04:15:01;;;;;;;2.30;2.10;;;16.40;44.30;;;;;;5057393;28;20028;-45
2020/12/06 04:17:26;;;;;;;1.55;1.40;;;16.40;44.20;;;;;;5057132;28;20423;-47
2020/12/06 04:19:52;;;;;;;1.67;1.58;;;16.40;44.20;;;;;;5057523;28;20064;-45
2020/12/06 04:22:17;;;;;;;1.83;1.70;;;16.40;44.20;;;;;;5057146;28;20043;-47
2020/12/06 04:24:43;;;;;;;1.73;1.63;;;16.40;44.10;;;;;;5057026;28;20379;-46
2020/12/06 04:27:08;;;;;;;1.90;1.70;;;16.50;44.10;;;;;;5057428;28;20021;-47
2020/12/06 04:29:34;;;;;;;1.85;1.75;;;16.50;43.90;;;;;;5056834;28;20048;-45
2020/12/06 04:31:59;;;;;;;2.50;2.25;;;16.40;43.80;;;;;;5056637;28;20025;-45
2020/12/06 04:34:25;;;;;;;1.80;1.70;;;16.50;43.80;;;;;;5057319;28;20051;-45
2020/12/06 04:36:50;;;;;;;2.22;1.70;;;16.50;44.40;;;;;;5056833;28;20032;-45
2020/12/06 04:39:16;;;;;;;1.70;1.60;;;16.50;43.70;;;;;;5056837;28;20025;-52
2020/12/06 04:41:41;;;;;;;2.05;1.77;;;16.40;43.70;;;;;;5056839;28;20116;-47
2020/12/06 04:44:07;;;;;;;2.17;1.75;;;16.50;43.70;;;;;;5056804;28;20083;-46
2020/12/06 04:46:38;;;;;;;1.83;1.73;;;16.40;43.70;;;;;;5056926;28;20021;-48
2020/12/06 04:49:06;;;;;;;2.72;2.03;;;16.40;43.70;;;;;;5057092;28;20025;-47
2020/12/06 04:51:43;;;;;;;2.50;1.90;;;16.40;43.80;;;;;;5056748;28;20041;-46
2020/12/06 04:54:10;;;;;;;2.50;1.67;;;16.40;43.80;;;;;;5056558;28;20083;-48
2020/12/06 04:56:39;;;;;;;1.92;1.75;;;16.40;43.80;;;;;;5056986;28;20029;-46
2020/12/06 04:59:06;;;;;;;2.15;1.90;;;16.40;43.80;;;;;;5056546;28;20039;-48
2020/12/06 05:01:36;;;;;;;2.40;1.90;;;16.40;43.80;;;;;;5056237;28;20022;-46
2020/12/06 05:04:11;;;;;;;2.42;2.22;;;16.40;43.80;;;;;;5056488;28;20096;-48
2020/12/06 05:06:39;;;;;;;2.30;1.88;;;16.30;43.80;;;;;;5056746;28;20028;-46
2020/12/06 05:09:08;;;;;;;2.38;2.00;;;16.40;43.80;;;;;;5056688;28;20017;-45
2020/12/06 05:11:36;;;;;;;2.65;2.30;;;16.40;43.90;;;;;;5056308;28;20025;-47
2020/12/06 05:14:01;;;;;;;2.05;1.67;;;16.30;43.80;;;;;;5056464;28;20028;-47
2020/12/06 05:16:29;;;;;;;2.15;1.95;;;16.30;43.80;;;;;;5056392;28;20028;-49
2020/12/06 05:18:54;;;;;;;2.22;2.03;;;16.30;43.80;;;;;;5056339;28;20017;-47
2020/12/06 05:21:35;;;;;;;2.10;1.90;;;16.30;43.80;;;;;;5055874;28;20021;-47
2020/12/06 05:24:01;;;;;;;2.15;1.92;;;16.30;43.80;;;;;;5055946;28;20136;-45
2020/12/06 05:26:28;;;;;;;3.88;1.95;;;16.30;43.90;;;;;;5056079;28;20396;-46
2020/12/06 05:28:54;;;;;;;2.92;1.98;;;16.30;43.80;;;;;;5056055;28;20021;-50
2020/12/06 05:31:21;;;;;;;1.77;1.67;;;16.30;43.80;;;;;;5056024;28;20129;-46
2020/12/06 05:33:47;;;;;;;2.22;2.03;;;16.30;43.80;;;;;;5055715;28;20059;-52
2020/12/06 05:36:12;;;;;;;2.15;1.95;;;16.30;43.90;;;;;;5056295;28;20439;-49
2020/12/06 05:38:38;;;;;;;2.00;1.80;;;16.30;43.90;;;;;;5056052;28;20033;-45
2020/12/06 05:41:07;;;;;;;3.15;2.30;;;16.30;43.90;;;;;;5056212;28;20029;-46
2020/12/06 05:43:33;;;;;;;1.60;1.50;;;16.30;43.90;;;;;;5055743;28;20017;-46
2020/12/06 05:46:13;;;;;;;1.88;1.63;;;16.30;43.90;;;;;;5055531;28;20017;-48
2020/12/06 05:48:40;;;;;;;1.58;1.40;;;16.30;43.90;;;;;;5055838;28;20021;-51
2020/12/06 05:51:06;;;;;;;2.20;1.70;;;16.30;44.00;;;;;;5055815;28;20045;-47
2020/12/06 05:53:33;;;;;;;1.75;1.65;;;16.30;44.00;;;;;;5055467;28;20566;-49
2020/12/06 05:56:15;;;;;;;1.55;1.45;;;16.30;44.00;;;;;;5055739;28;20029;-47
2020/12/06 05:58:42;;;;;;;1.73;1.60;;;16.40;44.00;;;;;;5055750;28;20025;-46
2020/12/06 06:01:12;;;;;;;1.50;1.40;;;16.40;44.00;;;;;;5055576;28;20344;-47
2020/12/06 06:03:42;;;;;;;1.55;1.45;;;16.40;43.90;;;;;;5055358;28;20328;-45
2020/12/06 06:06:13;;;;;;;1.45;1.35;;;16.40;43.90;;;;;;5055585;28;20079;-48
2020/12/06 06:08:43;;;;;;;2.38;2.17;;;16.40;43.90;;;;;;5054764;28;20432;-47
2020/12/06 06:11:27;;;;;;;2.38;1.90;;;16.40;43.80;;;;;;5054997;28;20021;-47
2020/12/06 06:13:57;;;;;;;;;;;16.40;43.70;;;;;;5055636;28;20087;-47
2020/12/06 06:16:26;;;;;;;2.28;2.05;;;16.40;43.60;;;;;;5055334;28;20383;-47
2020/12/06 06:18:53;;;;;;;2.30;2.10;;;16.40;43.60;;;;;;5055112;28;20095;-45
2020/12/06 06:21:24;;;;;;;2.08;1.88;;;16.50;43.60;;;;;;5055360;28;20104;-45
2020/12/06 06:23:52;;;;;;;2.28;2.08;;;16.50;43.60;;;;;;5054914;28;20056;-46
2020/12/06 06:26:21;;;;;;;2.35;2.10;;;16.50;43.60;;;;;;5054986;28;20031;-45
2020/12/06 06:28:47;;;;;;;2.17;1.98;;;16.50;43.60;;;;;;5054902;28;20423;-46
2020/12/06 06:31:14;;;;;;;2.20;2.00;;;16.50;43.50;;;;;;5055035;28;20029;-46
2020/12/06 06:33:40;;;;;;;2.63;2.10;;;16.50;43.60;;;;;;5054765;28;20044;-50
2020/12/06 06:36:07;;;;;;;2.28;1.95;;;16.50;43.50;;;;;;5054496;28;20371;-46
2020/12/06 06:38:44;;;;;;;2.35;2.10;;;16.50;43.50;;;;;;5054367;28;20076;-51
2020/12/06 06:41:11;;;;;;;2.38;2.15;;;16.50;43.50;;;;;;5054828;28;20407;-45
2020/12/06 06:43:41;;;;;;;2.50;2.30;;;16.40;43.50;;;;;;5055036;28;20106;-52
2020/12/06 06:46:14;;;;;;;2.75;2.35;;;16.50;43.50;;;;;;5054923;28;20025;-44
2020/12/06 06:48:43;;;;;;;1.98;1.80;;;16.50;43.50;;;;;;5054562;28;20360;-50
2020/12/06 06:51:18;;;;;;;3.78;2.42;;;16.50;43.50;;;;;;5057158;28;20478;-47
2020/12/06 06:53:44;;;;;;;2.40;2.20;;;16.40;43.50;;;;;;5054992;28;20041;-46
2020/12/06 06:56:09;;;;;;;2.85;2.28;;;16.50;43.50;;;;;;5054987;28;20031;-47
2020/12/06 06:58:36;;;;;;;2.38;2.17;;;16.50;43.50;;;;;;5054598;28;20025;-51
2020/12/06 07:01:15;;;;;;;2.70;2.30;;;16.50;43.50;;;;;;5054861;28;20029;-46
2020/12/06 07:03:59;;;;;;;2.17;1.98;;;16.50;43.50;;;;;;5054340;28;20111;-47
2020/12/06 07:06:43;;;;;;;2.70;2.10;;;16.50;43.50;;;;;;5054575;28;20025;-48
2020/12/06 07:09:09;;;;;;;2.67;2.20;;;16.50;44.20;;;;;;5054591;28;20029;-50
2020/12/06 07:11:36;;;;;;;2.90;2.55;;;16.50;43.50;;;;;;5054250;28;20031;-49
2020/12/06 07:14:01;;;;;;;2.58;2.38;;;16.50;43.50;;;;;;5054456;28;20021;-46
2020/12/06 07:16:27;;;;;;;2.60;2.22;;;16.50;43.50;;;;;;5054453;28;20412;-48
2020/12/06 07:18:52;;;;;;;2.58;2.38;;;16.50;43.50;;;;;;5054212;28;20033;-47
2020/12/06 07:21:18;;;;;;;2.53;2.33;;;16.50;43.50;;;;;;5054673;28;20105;-44
2020/12/06 07:23:43;;;;;;;3.40;2.63;;;16.50;43.40;;;;;;5054050;28;20092;-45
2020/12/06 07:26:09;;;;;;;3.13;2.33;;;16.50;43.50;;;;;;5054532;28;20029;-48
2020/12/06 07:28:35;;;;;;;2.50;2.30;;;16.50;44.10;;;;;;5054378;28;20043;-47
2020/12/06 07:31:00;;;;;;;2.47;2.28;;;16.50;43.50;;;;;;5054030;28;20021;-45
2020/12/06 07:33:26;;;;;;;2.70;2.47;;;16.50;43.50;;;;;;5054406;28;20355;-49
2020/12/06 07:35:52;;;;;;;2.40;2.10;;;16.50;43.40;;;;;;5054642;28;20359;-51
2020/12/06 07:38:17;;;;;;;2.78;2.30;;;16.50;43.50;;;;;;5054467;28;20033;-47
2020/12/06 07:40:43;;;;;;;2.42;2.22;;;16.40;43.40;;;;;;5053921;28;20075;-45
2020/12/06 07:43:12;;;;;;;2.50;2.25;;;16.50;43.50;;;;;;5054079;28;20024;-46
2020/12/06 07:45:38;;;;;;;2.60;2.40;;;16.50;43.50;;;;;;5055308;28;20084;-46
2020/12/06 07:48:03;;;;;;;2.45;2.25;;;16.50;43.40;;;;;;5057901;28;20527;-50
2020/12/06 07:50:29;;;;;;;2.17;1.98;;;16.50;43.50;;;;;;5057717;28;20055;-49
2020/12/06 07:53:01;;;;;;;2.83;2.35;;;16.50;43.50;;;;;;5057929;28;20197;-51
2020/12/06 07:55:26;;;;;;;2.55;2.28;;;16.50;43.40;;;;;;5057932;28;20439;-47
2020/12/06 07:57:57;;;;;;;2.95;2.20;;;16.50;43.50;;;;;;5057614;28;20130;-45
2020/12/06 08:00:30;;;;;;;2.70;2.35;;;16.50;43.50;;;;;;5057440;28;20360;-53
2020/12/06 08:02:59;;;;;;;3.10;2.20;;;16.40;43.40;;;;;;5058082;28;20040;-49
2020/12/06 08:05:31;;;;;;;2.47;2.28;;;16.50;43.40;;;;;;5057478;28;20021;-50
2020/12/06 08:08:18;;;;;;;2.78;2.58;;;16.50;43.40;;;;;;5057333;28;20025;-44
2020/12/06 08:10:49;;;;;;;2.47;2.13;;;16.50;43.50;;;;;;5057439;28;20021;-47
2020/12/06 08:13:15;;;;;;;2.42;2.20;;;16.40;43.40;;;;;;5057032;28;20495;-49
2020/12/06 08:15:41;;;;;;;2.33;1.75;;;16.50;43.50;;;;;;5057770;28;20020;-45
2020/12/06 08:18:14;;;;;;;2.78;2.35;;;16.50;43.50;;;;;;5057511;28;20035;-45
2020/12/06 08:20:40;;;;;;;2.53;2.13;;;16.50;43.50;;;;;;5057474;28;20025;-48
2020/12/06 08:23:05;;;;;;;2.20;2.00;;;16.50;43.50;;;;;;5057240;28;20051;-47
2020/12/06 08:25:32;;;;;;;3.03;2.50;;;16.50;43.50;;;;;;5057424;28;20086;-47
2020/12/06 08:28:02;;;;;;;2.47;2.28;;;16.40;43.50;;;;;;5057160;28;20153;-51
2020/12/06 08:30:30;;;;;;;2.33;2.13;;;16.50;43.50;;;;;;5056860;28;20025;-51
2020/12/06 08:32:57;;;;;;;2.30;1.92;;;16.40;43.50;;;;;;5056547;28;20025;-48
2020/12/06 08:35:42;;;;;;;2.50;2.03;;;16.50;43.60;;;;;;5057035;28;20021;-47
2020/12/06 08:38:26;;;;;;;2.72;2.13;;;16.40;43.50;;;;;;5056933;28;20466;-46
2020/12/06 08:41:06;;;;;;;2.60;2.40;;;16.50;43.60;;;;;;5056767;28;20086;-48
2020/12/06 08:43:54;;;;;;;2.20;2.00;;;16.40;43.60;;;;;;5056725;28;20029;-46
2020/12/06 08:46:21;;;;;;;2.75;2.40;;;16.40;43.60;;;;;;5056837;28;20036;-47
2020/12/06 08:48:48;;;;;;;2.30;2.10;;;16.40;43.60;;;;;;5056912;28;20024;-49
2020/12/06 08:51:26;;;;;;;2.20;2.00;;;16.40;43.60;;;;;;5056797;28;20045;-52
2020/12/06 08:53:52;;;;;;;2.50;2.10;;;16.40;43.60;;;;;;5056407;28;20033;-47
2020/12/06 08:56:29;;;;;;;2.40;2.20;;;16.40;43.60;;;;;;5056421;28;20043;-47
2020/12/06 08:59:00;;;;;;;3.95;2.30;;;16.40;43.60;;;;;;5056542;28;20091;-45
2020/12/06 09:01:25;;;;;;;2.28;2.00;;;16.50;43.60;;;;;;5056338;28;20104;-51
2020/12/06 09:03:51;;;;;;;3.17;2.13;;;16.40;43.60;;;;;;5056550;28;20109;-48
2020/12/06 09:06:17;;;;;;;2.67;2.35;;;16.40;43.60;;;;;;5056363;28;20060;-46
2020/12/06 09:08:43;;;;;;;2.40;2.17;;;16.50;43.60;;;;;;5056349;28;20017;-51
2020/12/06 09:11:19;;;;;;;1.92;1.83;;;16.40;43.60;;;;;;5056253;28;20091;-49
2020/12/06 09:13:45;;;;;;;2.50;2.30;;;16.50;43.60;;;;;;5039476;28;20405;-48
2020/12/06 09:16:11;;;;;;;2.72;2.50;;;16.50;43.60;;;;;;5056768;28;20056;-50
2020/12/06 09:18:38;;;;;;;2.65;2.35;;;16.50;43.60;;;;;;5056586;28;20078;-48
2020/12/06 09:21:04;;;;;;;2.38;2.10;;;16.40;43.50;;;;;;5055747;28;20378;-46
2020/12/06 09:23:30;;;;;;;2.30;2.10;;;16.50;43.60;;;;;;5056034;28;20090;-53
2020/12/06 09:25:59;;;;;;;2.70;2.47;;;16.50;43.60;;;;;;5056229;28;20025;-46
2020/12/06 09:28:24;;;;;;;3.47;2.22;;;16.50;43.60;;;;;;5055995;28;20096;-48
2020/12/06 09:30:50;;;;;;;2.20;2.00;;;16.50;43.60;;;;;;5056269;28;20100;-47
2020/12/06 09:33:15;;;;;;;2.45;2.22;;;16.50;43.50;;;;;;5055877;28;20286;-45
2020/12/06 09:35:41;;;;;;;2.53;2.20;;;16.50;43.50;;;;;;5055667;28;20025;-46
2020/12/06 09:38:06;;;;;;;2.40;2.03;;;16.50;43.50;;;;;;5055686;28;20029;-50
2020/12/06 09:40:32;;;;;;;2.20;2.00;;;16.50;43.60;;;;;;5056156;28;20052;-51
2020/12/06 09:42:57;;;;;;;2.10;1.90;;;16.50;43.60;;;;;;5055453;28;20025;-48
2020/12/06 09:45:23;;;;;;;2.50;1.90;;;16.50;44.30;;;;;;5055735;28;20021;-51
2020/12/06 09:47:49;;;;;;;1.83;1.73;;;16.50;43.60;;;;;;5055240;28;20039;-46
2020/12/06 09:50:14;;;;;;;1.85;1.75;;;16.60;43.70;;;;;;5055197;28;20076;-44
2020/12/06 09:52:39;;;;;;;2.58;1.75;;;16.50;43.70;;;;;;5055817;28;20040;-45
2020/12/06 09:55:05;;;;;;;2.10;1.90;;;16.60;43.80;;;;;;5055483;28;20140;-52
2020/12/06 09:57:31;;;;;;;2.15;1.95;;;16.60;43.90;;;;;;5055892;28;20017;-45
2020/12/06 09:59:56;;;;;;;1.80;1.70;;;16.60;43.90;;;;;;5055367;28;20029;-48
2020/12/06 10:02:22;;;;;;;1.70;1.60;;;16.60;43.90;;;;;;5055747;28;20028;-44
2020/12/06 10:04:47;;;;;;;1.65;1.55;;;16.60;43.90;;;;;;5055256;28;20337;-49
2020/12/06 10:07:13;;;;;;;1.70;1.60;;;16.60;43.90;;;;;;5055153;28;20031;-45
2020/12/06 10:09:38;;;;;;;2.17;1.98;;;16.60;43.80;;;;;;5055078;28;20426;-46
2020/12/06 10:12:04;;;;;;;1.73;1.42;;;16.60;43.70;;;;;;5054878;28;20417;-46
2020/12/06 10:14:29;;;;;;;2.33;1.95;;;16.60;43.70;;;;;;5055122;28;20028;-46
2020/12/06 10:16:55;;;;;;;1.55;1.45;;;16.70;43.70;;;;;;5055132;28;20043;-45
2020/12/06 10:19:20;;;;;;;1.67;1.55;;;16.70;43.60;;;;;;5055288;28;20086;-48
2020/12/06 10:21:46;;;;;;;2.13;1.63;;;16.70;43.70;;;;;;5055548;28;20086;-48
2020/12/06 10:24:11;;;;;;;2.30;1.80;;;16.70;43.60;;;;;;5054984;28;20337;-50
2020/12/06 10:26:37;;;;;;;1.58;1.48;;;16.70;43.60;;;;;;5055444;28;20156;-49
2020/12/06 10:29:02;;;;;;;1.75;1.60;;;16.80;43.70;;;;;;5054969;28;20097;-48
2020/12/06 10:31:28;;;;;;;2.08;1.73;;;16.70;43.60;;;;;;5055079;28;20036;-46
2020/12/06 10:33:53;;;;;;;2.17;1.80;;;16.80;43.70;;;;;;5055025;28;20116;-49
2020/12/06 10:36:19;;;;;;;1.55;1.45;;;16.80;43.70;;;;;;5054716;28;20039;-47
2020/12/06 10:38:44;;;;;;;1.60;1.50;;;16.80;43.70;;;;;;5055270;28;20086;-48
2020/12/06 10:41:10;;;;;;;2.00;1.60;;;16.80;43.70;;;;;;5054902;28;20032;-48
2020/12/06 10:43:35;;;;;;;2.03;1.70;;;16.80;43.70;;;;;;5054870;28;20024;-45
2020/12/06 10:46:01;;;;;;;2.00;1.58;;;16.80;43.70;;;;;;5054787;28;20032;-47
2020/12/06 10:48:26;;;;;;;1.42;1.33;;;16.80;43.80;;;;;;5054699;28;20029;-50
2020/12/06 10:50:53;;;;;;;1.88;1.67;;;16.80;43.80;;;;;;5054862;28;20128;-45
2020/12/06 10:53:18;;;;;;;1.38;1.27;;;16.80;43.80;;;;;;5054606;28;20045;-46
2020/12/06 10:55:44;;;;;;;2.42;1.65;;;16.80;43.80;;;;;;5054932;28;20036;-49
2020/12/06 10:58:10;;;;;;;1.60;1.50;;;16.80;43.80;;;;;;5054578;28;20036;-50
2020/12/06 11:00:35;;;;;;;1.65;1.55;;;16.90;43.90;;;;;;5055000;28;20179;-49
2020/12/06 11:03:01;;;;;;;1.65;1.55;;;16.80;43.90;;;;;;5054785;28;20116;-49
2020/12/06 11:05:26;;;;;;;1.90;1.55;;;16.80;43.80;;;;;;5054433;28;20028;-47
2020/12/06 11:07:52;;;;;;;1.60;1.50;;;16.90;43.90;;;;;;5054703;28;20113;-46
2020/12/06 11:10:17;;;;;;;1.90;1.48;;;16.90;43.90;;;;;;5054514;28;20025;-47
2020/12/06 11:12:43;;;;;;;1.63;1.52;;;16.80;43.90;;;;;;5054449;28;20059;-48
2020/12/06 11:15:09;;;;;;;1.60;1.50;;;16.80;43.90;;;;;;5054552;28;20017;-50
2020/12/06 11:17:34;;;;;;;1.63;1.52;;;16.80;44.10;;;;;;5054695;28;20032;-45
2020/12/06 11:20:00;;;;;;;2.17;1.98;;;16.80;44.10;;;;;;5056067;28;20454;-47
2020/12/06 11:22:26;;;;;;;2.20;1.70;;;16.90;44.10;;;;;;5058782;28;20025;-46
2020/12/06 11:24:51;;;;;;;2.40;1.85;;;16.80;44.10;;;;;;5058523;28;20072;-47
2020/12/06 11:27:17;;;;;;;1.70;1.50;;;16.80;44.00;;;;;;5058496;28;20021;-46
2020/12/06 11:29:43;;;;;;;2.13;1.92;;;16.90;44.10;;;;;;5058331;28;20017;-45
2020/12/06 11:32:08;;;;;;;1.70;1.60;;;16.80;44.00;;;;;;5058172;28;20033;-46
2020/12/06 11:34:34;;;;;;;2.10;1.90;;;16.80;44.00;;;;;;5058174;28;20029;-47
2020/12/06 11:36:59;;;;;;;2.03;1.75;;;16.80;44.00;;;;;;5058423;28;20036;-47
2020/12/06 11:39:25;;;;;;;1.80;1.70;;;16.80;44.00;;;;;;5057919;28;20044;-45
2020/12/06 11:41:55;;;;;;;2.33;1.75;;;16.80;44.00;;;;;;5058089;28;20032;-45
2020/12/06 11:44:21;;;;;;;2.05;1.90;;;16.80;44.10;;;;;;5058010;28;20025;-47
2020/12/06 11:46:47;;;;;;;2.10;1.90;;;16.80;44.10;;;;;;5039945;28;20033;-50
2020/12/06 11:49:13;;;;;;;2.35;2.00;;;16.70;44.00;;;;;;5057735;28;20056;-49
2020/12/06 11:51:38;;;;;;;1.93;1.80;;;16.70;44.00;;;;;;5061576;28;20073;-46
2020/12/06 11:54:04;;;;;;;2.20;2.00;;;16.80;44.10;;;;;;5057839;28;20040;-45
2020/12/06 11:56:30;;;;;;;1.75;1.65;;;16.70;44.10;;;;;;5057956;28;20031;-48
2020/12/06 11:58:55;;;;;;;1.88;1.73;;;16.70;44.20;;;;;;5058089;28;20139;-47
2020/12/06 12:01:21;;;;;;;1.90;1.60;;;16.70;44.20;;;;;;5057725;28;20060;-46
2020/12/06 12:03:47;;;;;;;1.85;1.75;;;16.70;44.20;;;;;;5057182;28;20038;-45
2020/12/06 12:06:12;;;;;;;2.20;2.00;;;16.70;44.20;;;;;;5058122;28;20415;-47
2020/12/06 12:08:38;;;;;;;2.00;1.80;;;16.70;44.20;;;;;;5057563;28;20060;-48
2020/12/06 12:11:09;;;;;;;1.73;1.63;;;16.70;44.20;;;;;;5057413;28;20436;-48
2020/12/06 12:13:38;;;;;;;2.03;1.83;;;16.70;44.30;;;;;;5057602;28;20040;-50
2020/12/06 12:16:05;;;;;;;1.92;1.83;;;16.70;44.30;;;;;;5057447;28;20025;-47
2020/12/06 12:18:31;;;;;;;1.80;1.70;;;16.60;44.20;;;;;;5057824;28;20120;-50
2020/12/06 12:20:56;;;;;;;2.22;2.03;;;16.60;44.20;;;;;;5057294;28;20117;-47
2020/12/06 12:23:22;;;;;;;1.98;1.83;;;16.60;44.30;;;;;;5057554;28;20450;-47
2020/12/06 12:25:47;;;;;;;1.60;1.50;;;16.60;44.30;;;;;;5057252;28;20112;-49
2020/12/06 12:28:13;;;;;;;1.92;1.73;;;16.60;44.30;;;;;;5057504;28;20029;-48
2020/12/06 12:30:38;;;;;;;2.22;2.03;;;16.60;44.30;;;;;;5057055;28;20432;-53
2020/12/06 12:33:04;;;;;;;2.08;1.88;;;16.60;44.30;;;;;;5056474;28;20330;-51
2020/12/06 12:35:29;;;;;;;1.90;1.77;;;16.60;44.40;;;;;;5057010;28;20079;-49
2020/12/06 12:37:56;;;;;;;2.15;1.95;;;16.60;44.40;;;;;;5057085;28;20025;-45
2020/12/06 12:40:22;;;;;;;2.13;1.90;;;16.60;44.40;;;;;;5056674;28;20451;-50
2020/12/06 12:42:48;;;;;;;2.42;1.92;;;16.60;44.40;;;;;;5056918;28;20020;-45
2020/12/06 12:45:13;;;;;;;1.92;1.77;;;16.60;44.40;;;;;;5056771;28;20025;-51
2020/12/06 12:47:39;;;;;;;2.15;1.95;;;16.60;44.40;;;;;;5056699;28;20032;-48